createdAt,value
2017-10-03T00:00:23.989Z,17.44
2017-10-03T00:01:23.909Z,17.55
2017-10-03T00:02:23.820Z,17.51
2017-10-03T00:03:23.746Z,17.51
2017-10-03T00:04:23.679Z,17.40
2017-10-03T00:05:23.580Z,17.48
2017-10-03T00:06:23.522Z,17.47
2017-10-03T00:07:23.422Z,17.43
2017-10-03T00:08:23.343Z,17.44
2017-10-03T00:09:23.255Z,17.41
2017-10-03T00:10:23.176Z,17.55
2017-10-03T00:11:23.096Z,17.47
2017-10-03T00:12:23.017Z,17.47
2017-10-03T00:13:22.939Z,17.43
2017-10-03T00:14:22.873Z,17.53
2017-10-03T00:15:22.777Z,17.55
2017-10-03T00:16:22.726Z,17.44
2017-10-03T00:17:22.616Z,17.54
2017-10-03T00:18:22.534Z,17.47
2017-10-03T00:19:22.452Z,17.41
2017-10-03T00:20:22.371Z,17.43
2017-10-03T00:21:22.292Z,17.36
2017-10-03T00:22:22.213Z,17.26
2017-10-03T00:23:22.137Z,17.23
2017-10-03T00:24:22.057Z,17.26
2017-10-03T00:25:21.970Z,17.15
2017-10-03T00:26:21.886Z,17.25
2017-10-03T00:27:21.818Z,17.15
2017-10-03T00:28:21.727Z,17.28
2017-10-03T00:29:21.645Z,17.22
2017-10-03T00:30:21.565Z,17.28
2017-10-03T00:31:21.485Z,17.28
2017-10-03T00:32:21.401Z,17.40
2017-10-03T00:33:21.317Z,17.40
2017-10-03T00:34:21.244Z,17.38
2017-10-03T00:35:21.163Z,17.32
2017-10-03T00:36:21.078Z,17.32
2017-10-03T00:37:20.990Z,17.41
2017-10-03T00:38:20.920Z,17.38
2017-10-03T00:39:20.833Z,17.36
2017-10-03T00:40:20.752Z,17.38
2017-10-03T00:41:20.690Z,17.47
2017-10-03T00:42:20.590Z,17.43
2017-10-03T00:43:20.507Z,17.33
2017-10-03T00:44:20.428Z,17.51
2017-10-03T00:45:20.358Z,17.44
2017-10-03T00:46:20.267Z,17.38
2017-10-03T00:47:20.202Z,17.43
2017-10-03T00:48:20.105Z,17.40
2017-10-03T00:49:20.029Z,17.44
2017-10-03T00:50:19.944Z,17.40
2017-10-03T00:51:19.862Z,17.40
2017-10-03T00:52:19.783Z,17.44
2017-10-03T00:53:19.702Z,17.43
2017-10-03T00:54:19.624Z,17.50
2017-10-03T00:55:19.547Z,17.41
2017-10-03T00:56:19.456Z,17.40
2017-10-03T00:57:19.381Z,17.50
2017-10-03T00:58:19.313Z,17.47
2017-10-03T00:59:19.217Z,17.59
2017-10-03T01:00:19.142Z,17.51
2017-10-03T01:01:19.066Z,17.59
2017-10-03T01:02:18.982Z,17.63
2017-10-03T01:03:18.902Z,17.54
2017-10-03T01:04:18.821Z,17.51
2017-10-03T01:05:18.741Z,17.51
2017-10-03T01:06:18.658Z,17.48
2017-10-03T01:07:18.587Z,17.44
2017-10-03T01:08:18.502Z,17.54
2017-10-03T01:09:18.420Z,17.46
2017-10-03T01:10:18.336Z,17.54
2017-10-03T01:11:18.275Z,17.55
2017-10-03T01:12:18.179Z,17.63
2017-10-03T01:13:18.096Z,17.62
2017-10-03T01:14:18.026Z,17.55
2017-10-03T01:15:17.938Z,17.54
2017-10-03T01:16:17.858Z,17.59
2017-10-03T01:17:17.786Z,17.67
2017-10-03T01:18:17.696Z,17.57
2017-10-03T01:19:17.614Z,17.59
2017-10-03T01:20:17.537Z,17.66
2017-10-03T01:21:17.455Z,17.62
2017-10-03T01:22:17.377Z,17.57
2017-10-03T01:23:17.293Z,17.69
2017-10-03T01:24:17.214Z,17.64
2017-10-03T01:25:17.137Z,17.44
2017-10-03T01:26:17.058Z,17.46
2017-10-03T01:27:16.981Z,17.50
2017-10-03T01:28:16.899Z,17.63
2017-10-03T01:29:16.820Z,17.69
2017-10-03T01:30:16.732Z,17.64
2017-10-03T01:31:16.655Z,17.55
2017-10-03T01:32:16.599Z,17.62
2017-10-03T01:33:16.499Z,17.55
2017-10-03T01:34:16.414Z,17.57
2017-10-03T01:35:16.341Z,17.59
2017-10-03T01:36:16.253Z,17.55
2017-10-03T01:37:16.195Z,17.57
2017-10-03T01:38:16.092Z,17.59
2017-10-03T01:39:16.009Z,17.59
2017-10-03T01:40:15.934Z,17.63
2017-10-03T01:41:15.854Z,17.63
2017-10-03T01:42:15.769Z,17.67
2017-10-03T01:43:15.690Z,17.70
2017-10-03T01:44:15.620Z,17.66
2017-10-03T01:45:15.533Z,17.67
2017-10-03T01:46:15.445Z,17.64
2017-10-03T01:47:15.368Z,17.73
2017-10-03T01:48:15.288Z,17.76
2017-10-03T01:49:15.229Z,17.64
2017-10-03T01:50:15.128Z,17.70
2017-10-03T01:51:15.072Z,17.67
2017-10-03T01:52:14.963Z,17.55
2017-10-03T01:53:14.886Z,17.66
2017-10-03T01:54:14.812Z,17.51
2017-10-03T01:55:14.726Z,17.59
2017-10-03T01:56:14.647Z,17.57
2017-10-03T01:57:14.576Z,17.66
2017-10-03T01:58:14.485Z,17.59
2017-10-03T01:59:14.402Z,17.55
2017-10-03T02:00:14.325Z,17.59
2017-10-03T02:01:14.249Z,17.59
2017-10-03T02:02:14.165Z,17.67
2017-10-03T02:03:14.103Z,17.69
2017-10-03T02:04:14.020Z,17.66
2017-10-03T02:05:13.923Z,17.67
2017-10-03T02:06:13.843Z,17.64
2017-10-03T02:07:13.764Z,17.64
2017-10-03T02:08:13.681Z,17.74
2017-10-03T02:09:13.603Z,17.67
2017-10-03T02:10:13.528Z,17.67
2017-10-03T02:11:13.439Z,17.67
2017-10-03T02:12:13.357Z,17.70
2017-10-03T02:13:13.288Z,17.67
2017-10-03T02:14:13.200Z,17.64
2017-10-03T02:15:13.118Z,17.71
2017-10-03T02:16:13.041Z,17.76
2017-10-03T02:17:12.960Z,17.76
2017-10-03T02:18:12.878Z,17.70
2017-10-03T02:19:12.798Z,17.66
2017-10-03T02:20:12.724Z,17.71
2017-10-03T02:21:12.638Z,17.66
2017-10-03T02:22:12.558Z,17.79
2017-10-03T02:23:12.489Z,17.66
2017-10-03T02:24:12.396Z,17.66
2017-10-03T02:25:12.311Z,17.79
2017-10-03T02:26:12.234Z,17.76
2017-10-03T02:27:12.173Z,17.84
2017-10-03T02:28:12.077Z,17.88
2017-10-03T02:29:12.002Z,17.81
2017-10-03T02:30:11.928Z,17.78
2017-10-03T02:31:11.833Z,17.76
2017-10-03T02:32:11.761Z,17.74
2017-10-03T02:33:11.700Z,17.76
2017-10-03T02:34:11.596Z,17.67
2017-10-03T02:35:11.526Z,17.73
2017-10-03T02:36:11.445Z,17.78
2017-10-03T02:37:11.355Z,17.81
2017-10-03T02:38:11.268Z,17.81
2017-10-03T02:39:11.192Z,17.79
2017-10-03T02:40:11.116Z,17.74
2017-10-03T02:41:11.030Z,17.73
2017-10-03T02:42:10.951Z,17.76
2017-10-03T02:43:10.875Z,17.78
2017-10-03T02:44:10.793Z,17.78
2017-10-03T02:45:10.720Z,17.91
2017-10-03T02:46:10.631Z,17.89
2017-10-03T02:47:10.564Z,17.87
2017-10-03T02:48:10.525Z,17.88
2017-10-03T02:49:10.391Z,17.84
2017-10-03T02:50:10.315Z,17.73
2017-10-03T02:51:10.228Z,17.81
2017-10-03T02:52:10.158Z,17.76
2017-10-03T02:53:10.069Z,17.67
2017-10-03T02:54:09.993Z,17.48
2017-10-03T02:55:09.911Z,17.20
2017-10-03T02:56:09.838Z,17.04
2017-10-03T02:57:09.756Z,16.96
2017-10-03T02:58:09.666Z,16.73
2017-10-03T02:59:09.590Z,16.48
2017-10-03T03:00:09.504Z,16.60
2017-10-03T03:01:09.425Z,16.71
2017-10-03T03:02:09.343Z,16.73
2017-10-03T03:03:09.273Z,16.89
2017-10-03T03:04:09.183Z,16.67
2017-10-03T03:05:09.100Z,16.56
2017-10-03T03:06:09.017Z,16.50
2017-10-03T03:07:08.935Z,16.65
2017-10-03T03:08:08.859Z,16.53
2017-10-03T03:09:08.774Z,16.48
2017-10-03T03:10:08.713Z,16.67
2017-10-03T03:11:08.612Z,16.56
2017-10-03T03:12:08.532Z,16.48
2017-10-03T03:13:08.516Z,16.50
2017-10-03T03:14:08.372Z,16.60
2017-10-03T03:15:08.288Z,16.65
2017-10-03T03:16:08.208Z,16.52
2017-10-03T03:17:08.142Z,16.33
2017-10-03T03:18:08.045Z,16.52
2017-10-03T03:19:07.959Z,16.26
2017-10-03T03:20:07.877Z,16.31
2017-10-03T03:21:07.799Z,16.14
2017-10-03T03:22:07.732Z,16.34
2017-10-03T03:23:07.633Z,16.27
2017-10-03T03:24:07.580Z,16.31
2017-10-03T03:25:07.485Z,16.27
2017-10-03T03:26:07.389Z,16.38
2017-10-03T03:27:07.308Z,16.55
2017-10-03T03:28:07.229Z,16.56
2017-10-03T03:29:07.142Z,16.49
2017-10-03T03:30:07.066Z,16.45
2017-10-03T03:31:06.996Z,16.30
2017-10-03T03:32:06.906Z,16.49
2017-10-03T03:33:06.823Z,16.60
2017-10-03T03:34:06.739Z,16.52
2017-10-03T03:35:06.659Z,16.49
2017-10-03T03:36:06.573Z,16.30
2017-10-03T03:37:06.491Z,16.33
2017-10-03T03:38:06.413Z,16.38
2017-10-03T03:39:06.340Z,16.27
2017-10-03T03:40:06.246Z,16.33
2017-10-03T03:41:06.168Z,16.42
2017-10-03T03:42:06.089Z,16.31
2017-10-03T03:43:06.004Z,16.30
2017-10-03T03:44:05.936Z,16.30
2017-10-03T03:45:05.841Z,16.14
2017-10-03T03:46:05.762Z,16.23
2017-10-03T03:47:05.677Z,16.40
2017-10-03T03:48:05.600Z,16.38
2017-10-03T03:49:05.517Z,16.30
2017-10-03T03:50:05.441Z,16.41
2017-10-03T03:51:05.385Z,16.37
2017-10-03T03:52:05.282Z,16.33
2017-10-03T03:53:05.192Z,16.38
2017-10-03T03:54:05.109Z,16.35
2017-10-03T03:55:05.028Z,16.40
2017-10-03T03:56:04.950Z,16.42
2017-10-03T03:57:04.871Z,16.35
2017-10-03T03:58:04.790Z,16.27
2017-10-03T03:59:04.710Z,16.25
2017-10-03T04:00:04.640Z,16.12
2017-10-03T04:01:04.543Z,16.30
2017-10-03T04:02:04.465Z,16.33
2017-10-03T04:03:04.381Z,16.38
2017-10-03T04:04:04.319Z,16.34
2017-10-03T04:05:04.218Z,16.23
2017-10-03T04:06:04.141Z,16.42
2017-10-03T04:07:04.052Z,16.41
2017-10-03T04:08:03.970Z,16.41
2017-10-03T04:09:03.904Z,16.52
2017-10-03T04:10:03.824Z,16.44
2017-10-03T04:11:03.725Z,16.50
2017-10-03T04:12:03.650Z,16.48
2017-10-03T04:13:03.573Z,16.49
2017-10-03T04:14:03.490Z,16.62
2017-10-03T04:15:03.407Z,16.59
2017-10-03T04:16:03.320Z,16.38
2017-10-03T04:17:03.245Z,16.50
2017-10-03T04:18:03.167Z,16.59
2017-10-03T04:19:03.085Z,16.49
2017-10-03T04:20:03.013Z,16.38
2017-10-03T04:21:02.924Z,16.52
2017-10-03T04:22:02.845Z,16.67
2017-10-03T04:23:02.757Z,16.58
2017-10-03T04:24:02.680Z,16.56
2017-10-03T04:25:02.596Z,16.44
2017-10-03T04:26:02.522Z,16.53
2017-10-03T04:27:02.442Z,16.49
2017-10-03T04:28:02.362Z,16.52
2017-10-03T04:29:02.280Z,16.45
2017-10-03T04:30:02.199Z,16.53
2017-10-03T04:31:02.118Z,16.49
2017-10-03T04:32:02.032Z,16.42
2017-10-03T04:33:01.952Z,16.44
2017-10-03T04:34:01.892Z,16.56
2017-10-03T04:35:01.792Z,16.55
2017-10-03T04:36:01.711Z,16.41
2017-10-03T04:37:01.640Z,16.50
2017-10-03T04:38:01.551Z,16.59
2017-10-03T04:39:01.468Z,16.52
2017-10-03T04:40:01.397Z,16.50
2017-10-03T04:41:01.309Z,16.41
2017-10-03T04:42:01.229Z,16.48
2017-10-03T04:43:01.144Z,16.42
2017-10-03T04:44:01.066Z,16.48
2017-10-03T04:45:00.984Z,16.56
2017-10-03T04:46:00.901Z,16.48
2017-10-03T04:47:00.853Z,16.53
2017-10-03T04:48:00.744Z,16.38
2017-10-03T04:49:00.666Z,16.44
2017-10-03T04:50:00.581Z,16.49
2017-10-03T04:51:00.508Z,16.45
2017-10-03T04:52:00.428Z,16.41
2017-10-03T04:53:00.343Z,16.25
2017-10-03T04:54:00.272Z,16.31
2017-10-03T04:55:00.188Z,16.25
2017-10-03T04:56:00.100Z,16.42
2017-10-03T04:57:00.019Z,16.42
2017-10-03T04:57:59.941Z,16.42
2017-10-03T04:58:59.856Z,16.41
2017-10-03T04:59:59.773Z,16.41
2017-10-03T05:00:59.698Z,16.31
2017-10-03T05:01:59.619Z,16.25
2017-10-03T05:02:59.534Z,16.41
2017-10-03T05:03:59.455Z,16.35
2017-10-03T05:04:59.376Z,16.42
2017-10-03T05:05:59.294Z,16.34
2017-10-03T05:06:59.240Z,16.26
2017-10-03T05:07:59.129Z,16.26
2017-10-03T05:08:59.070Z,16.31
2017-10-03T05:09:58.967Z,16.22
2017-10-03T05:10:58.898Z,16.30
2017-10-03T05:11:58.810Z,16.34
2017-10-03T05:12:58.729Z,16.45
2017-10-03T05:13:58.658Z,16.44
2017-10-03T05:14:58.562Z,16.22
2017-10-03T05:15:58.492Z,16.41
2017-10-03T05:16:58.405Z,16.40
2017-10-03T05:17:58.325Z,16.45
2017-10-03T05:18:58.249Z,16.35
2017-10-03T05:19:58.171Z,16.45
2017-10-03T05:20:58.082Z,16.49
2017-10-03T05:21:57.997Z,16.41
2017-10-03T05:22:57.921Z,16.27
2017-10-03T05:23:57.851Z,16.18
2017-10-03T05:24:57.761Z,16.37
2017-10-03T05:25:57.681Z,16.38
2017-10-03T05:26:57.612Z,16.35
2017-10-03T05:27:57.528Z,16.23
2017-10-03T05:28:57.435Z,16.27
2017-10-03T05:29:57.370Z,16.37
2017-10-03T05:30:57.278Z,16.27
2017-10-03T05:31:57.198Z,16.41
2017-10-03T05:32:57.139Z,16.31
2017-10-03T05:33:57.044Z,16.25
2017-10-03T05:34:56.954Z,16.20
2017-10-03T05:35:56.873Z,16.11
2017-10-03T05:36:56.794Z,16.26
2017-10-03T05:37:56.716Z,16.31
2017-10-03T05:38:56.634Z,16.30
2017-10-03T05:39:56.551Z,16.31
2017-10-03T05:40:56.472Z,16.26
2017-10-03T05:41:56.389Z,16.20
2017-10-03T05:42:56.309Z,16.16
2017-10-03T05:43:56.233Z,16.11
2017-10-03T05:44:56.151Z,16.09
2017-10-03T05:45:56.075Z,16.14
2017-10-03T05:46:56.003Z,16.11
2017-10-03T05:47:55.908Z,16.06
2017-10-03T05:48:55.824Z,16.03
2017-10-03T05:49:55.750Z,16.04
2017-10-03T05:50:55.666Z,16.01
2017-10-03T05:51:55.592Z,15.99
2017-10-03T05:52:55.519Z,16.07
2017-10-03T05:53:55.428Z,16.22
2017-10-03T05:54:55.342Z,16.11
2017-10-03T05:55:55.264Z,16.11
2017-10-03T05:56:55.186Z,16.16
2017-10-03T05:57:55.101Z,16.26
2017-10-03T05:58:55.024Z,16.37
2017-10-03T05:59:54.966Z,16.15
2017-10-03T06:00:54.861Z,16.27
2017-10-03T06:01:54.794Z,16.18
2017-10-03T06:02:54.710Z,15.84
2017-10-03T06:03:54.643Z,15.81
2017-10-03T06:04:54.534Z,16.01
2017-10-03T06:05:54.456Z,16.01
2017-10-03T06:06:54.377Z,16.04
2017-10-03T06:07:54.302Z,16.11
2017-10-03T06:08:54.213Z,16.12
2017-10-03T06:09:54.143Z,16.14
2017-10-03T06:10:54.052Z,16.06
2017-10-03T06:11:53.972Z,16.07
2017-10-03T06:12:53.889Z,16.15
2017-10-03T06:13:53.810Z,16.00
2017-10-03T06:14:53.729Z,16.01
2017-10-03T06:15:53.647Z,16.06
2017-10-03T06:16:53.591Z,16.04
2017-10-03T06:17:53.495Z,16.04
2017-10-03T06:18:53.412Z,16.06
2017-10-03T06:19:53.325Z,16.11
2017-10-03T06:20:53.240Z,16.07
2017-10-03T06:21:53.166Z,16.11
2017-10-03T06:22:53.083Z,16.12
2017-10-03T06:23:53.011Z,15.99
2017-10-03T06:24:52.920Z,15.99
2017-10-03T06:25:52.842Z,16.00
2017-10-03T06:26:52.767Z,15.96
2017-10-03T06:27:52.682Z,16.00
2017-10-03T06:28:52.609Z,16.06
2017-10-03T06:29:52.535Z,16.12
2017-10-03T06:30:52.439Z,16.00
2017-10-03T06:31:52.421Z,15.96
2017-10-03T06:32:52.279Z,15.99
2017-10-03T06:33:52.199Z,15.96
2017-10-03T06:34:52.114Z,16.03
2017-10-03T06:35:52.036Z,15.94
2017-10-03T06:36:51.963Z,16.01
2017-10-03T06:37:51.872Z,16.07
2017-10-03T06:38:51.788Z,16.12
2017-10-03T06:39:51.711Z,16.04
2017-10-03T06:40:51.630Z,16.04
2017-10-03T06:41:51.551Z,16.01
2017-10-03T06:42:51.471Z,16.01
2017-10-03T06:43:51.407Z,16.04
2017-10-03T06:44:51.308Z,16.04
2017-10-03T06:45:51.225Z,16.01
2017-10-03T06:46:51.145Z,16.03
2017-10-03T06:47:51.066Z,16.00
2017-10-03T06:48:50.981Z,15.99
2017-10-03T06:49:50.913Z,16.04
2017-10-03T06:50:50.857Z,16.07
2017-10-03T06:51:50.747Z,16.04
2017-10-03T06:52:50.662Z,16.11
2017-10-03T06:53:50.591Z,15.99
2017-10-03T06:54:50.501Z,16.06
2017-10-03T06:55:50.416Z,16.06
2017-10-03T06:56:50.336Z,16.09
2017-10-03T06:57:50.259Z,15.96
2017-10-03T06:58:50.185Z,16.03
2017-10-03T06:59:50.098Z,16.00
2017-10-03T07:00:50.029Z,16.01
2017-10-03T07:01:49.933Z,16.14
2017-10-03T07:02:49.855Z,16.11
2017-10-03T07:03:49.790Z,16.03
2017-10-03T07:04:49.693Z,16.11
2017-10-03T07:05:49.611Z,16.23
2017-10-03T07:06:49.547Z,16.26
2017-10-03T07:07:49.455Z,16.26
2017-10-03T07:08:49.369Z,16.26
2017-10-03T07:09:49.297Z,16.11
2017-10-03T07:10:49.215Z,16.16
2017-10-03T07:11:49.127Z,16.27
2017-10-03T07:12:49.052Z,16.09
2017-10-03T07:13:48.976Z,16.26
2017-10-03T07:14:48.888Z,16.16
2017-10-03T07:15:48.806Z,16.26
2017-10-03T07:16:48.741Z,16.34
2017-10-03T07:17:48.652Z,16.14
2017-10-03T07:18:48.563Z,16.22
2017-10-03T07:19:48.487Z,16.26
2017-10-03T07:20:48.421Z,16.16
2017-10-03T07:21:48.324Z,16.11
2017-10-03T07:22:48.242Z,16.12
2017-10-03T07:23:48.170Z,16.12
2017-10-03T07:24:48.086Z,16.30
2017-10-03T07:25:47.999Z,16.25
2017-10-03T07:26:47.918Z,16.27
2017-10-03T07:27:47.853Z,16.22
2017-10-03T07:28:47.759Z,16.18
2017-10-03T07:29:47.681Z,16.25
2017-10-03T07:30:47.601Z,16.27
2017-10-03T07:31:47.527Z,16.25
2017-10-03T07:32:47.432Z,16.37
2017-10-03T07:33:47.354Z,16.25
2017-10-03T07:34:47.293Z,16.31
2017-10-03T07:35:47.194Z,16.37
2017-10-03T07:36:47.115Z,16.35
2017-10-03T07:37:47.035Z,16.33
2017-10-03T07:38:46.967Z,16.34
2017-10-03T07:39:46.884Z,16.38
2017-10-03T07:40:46.804Z,16.45
2017-10-03T07:41:46.710Z,16.50
2017-10-03T07:42:46.633Z,16.50
2017-10-03T07:43:46.580Z,16.55
2017-10-03T07:44:46.486Z,16.37
2017-10-03T07:45:46.390Z,16.35
2017-10-03T07:46:46.311Z,16.41
2017-10-03T07:47:46.229Z,16.41
2017-10-03T07:48:46.155Z,16.41
2017-10-03T07:49:46.072Z,16.41
2017-10-03T07:50:46.008Z,16.44
2017-10-03T07:51:45.905Z,16.48
2017-10-03T07:52:45.828Z,16.48
2017-10-03T07:53:45.761Z,16.49
2017-10-03T07:54:45.673Z,16.37
2017-10-03T07:55:45.587Z,16.31
2017-10-03T07:56:45.511Z,16.38
2017-10-03T07:57:45.431Z,16.49
2017-10-03T07:58:45.351Z,16.31
2017-10-03T07:59:45.265Z,16.45
2017-10-03T08:00:45.184Z,16.52
2017-10-03T08:01:45.114Z,16.74
2017-10-03T08:02:45.022Z,17.15
2017-10-03T08:03:44.944Z,17.73
2017-10-03T08:04:44.868Z,18.33
2017-10-03T08:05:44.783Z,18.40
2017-10-03T08:06:44.735Z,18.21
2017-10-03T08:07:44.647Z,17.87
2017-10-03T08:08:44.550Z,17.81
2017-10-03T08:09:44.469Z,17.76
2017-10-03T08:10:44.400Z,17.94
2017-10-03T08:11:44.312Z,18.10
2017-10-03T08:12:44.246Z,17.87
2017-10-03T08:13:44.156Z,17.91
2017-10-03T08:14:44.075Z,17.84
2017-10-03T08:15:43.998Z,17.70
2017-10-03T08:16:43.922Z,17.63
2017-10-03T08:17:43.842Z,17.73
2017-10-03T08:18:43.765Z,17.82
2017-10-03T08:19:43.687Z,17.92
2017-10-03T08:20:43.618Z,18.50
2017-10-03T08:21:43.532Z,18.92
2017-10-03T08:22:43.468Z,19.53
2017-10-03T08:23:43.372Z,19.87
2017-10-03T08:24:43.296Z,20.25
2017-10-03T08:25:43.221Z,20.62
2017-10-03T08:26:43.143Z,21.21
2017-10-03T08:27:43.065Z,21.11
2017-10-03T08:28:42.994Z,21.04
2017-10-03T08:29:42.917Z,21.06
2017-10-03T08:30:42.842Z,21.08
2017-10-03T08:31:42.767Z,21.53
2017-10-03T08:32:42.702Z,21.71
2017-10-03T08:33:42.617Z,22.01
2017-10-03T08:34:42.542Z,22.38
2017-10-03T08:35:42.468Z,22.31
2017-10-03T08:36:42.393Z,22.39
2017-10-03T08:37:42.325Z,22.10
2017-10-03T08:38:42.246Z,21.63
2017-10-03T08:39:42.178Z,21.53
2017-10-03T08:40:42.105Z,21.46
2017-10-03T08:41:42.026Z,21.16
2017-10-03T08:42:41.952Z,20.98
2017-10-03T08:43:41.903Z,20.72
2017-10-03T08:44:41.805Z,20.81
2017-10-03T08:45:41.730Z,21.16
2017-10-03T08:46:41.666Z,21.02
2017-10-03T08:47:41.587Z,20.95
2017-10-03T08:48:41.506Z,21.35
2017-10-03T08:49:41.429Z,21.27
2017-10-03T08:50:41.356Z,21.05
2017-10-03T08:51:41.284Z,21.17
2017-10-03T08:52:41.214Z,21.56
2017-10-03T08:53:41.144Z,21.85
2017-10-03T08:54:41.055Z,21.90
2017-10-03T08:55:40.980Z,22.16
2017-10-03T08:56:40.906Z,22.31
2017-10-03T08:57:40.841Z,22.59
2017-10-03T08:58:40.758Z,22.35
2017-10-03T08:59:40.686Z,23.02
2017-10-03T09:00:40.618Z,23.26
2017-10-03T09:01:40.556Z,22.94
2017-10-03T09:02:40.489Z,22.56
2017-10-03T09:03:40.386Z,22.92
2017-10-03T09:04:40.311Z,23.09
2017-10-03T09:05:40.240Z,23.64
2017-10-03T09:06:40.164Z,23.76
2017-10-03T09:07:40.091Z,24.14
2017-10-03T09:08:40.020Z,24.34
2017-10-03T09:09:39.943Z,24.41
2017-10-03T09:10:39.864Z,24.34
2017-10-03T09:11:39.792Z,24.50
2017-10-03T09:12:39.721Z,24.37
2017-10-03T09:13:39.649Z,24.45
2017-10-03T09:14:39.578Z,24.69
2017-10-03T09:15:39.530Z,24.23
2017-10-03T09:16:39.439Z,24.32
2017-10-03T09:17:39.397Z,24.67
2017-10-03T09:18:39.299Z,24.71
2017-10-03T09:19:39.214Z,24.94
2017-10-03T09:20:39.139Z,24.69
2017-10-03T09:21:39.077Z,24.49
2017-10-03T09:22:38.996Z,23.98
2017-10-03T09:23:38.927Z,23.98
2017-10-03T09:24:38.863Z,23.64
2017-10-03T09:25:38.801Z,23.62
2017-10-03T09:26:38.704Z,23.35
2017-10-03T09:27:38.633Z,22.96
2017-10-03T09:28:38.554Z,22.72
2017-10-03T09:29:38.477Z,22.37
2017-10-03T09:30:38.409Z,22.22
2017-10-03T09:31:38.329Z,22.38
2017-10-03T09:32:38.255Z,22.12
2017-10-03T09:33:38.190Z,21.82
2017-10-03T09:34:38.107Z,21.82
2017-10-03T09:35:38.040Z,22.37
2017-10-03T09:36:37.976Z,22.28
2017-10-03T09:37:37.902Z,22.53
2017-10-03T09:38:37.808Z,22.29
2017-10-03T09:39:37.729Z,21.38
2017-10-03T09:40:37.659Z,21.61
2017-10-03T09:41:37.608Z,21.88
2017-10-03T09:42:37.510Z,21.94
2017-10-03T09:43:37.430Z,22.46
2017-10-03T09:44:37.355Z,22.65
2017-10-03T09:45:37.312Z,22.57
2017-10-03T09:46:37.222Z,23.12
2017-10-03T09:47:37.131Z,23.46
2017-10-03T09:48:37.056Z,23.80
2017-10-03T09:49:37.007Z,23.85
2017-10-03T09:50:36.915Z,23.27
2017-10-03T09:51:36.837Z,23.26
2017-10-03T09:52:36.760Z,23.75
2017-10-03T09:53:36.686Z,23.72
2017-10-03T09:54:36.612Z,23.94
2017-10-03T09:55:36.552Z,24.01
2017-10-03T09:56:36.465Z,24.08
2017-10-03T09:57:36.392Z,24.37
2017-10-03T09:58:36.326Z,24.37
2017-10-03T09:59:36.240Z,24.39
2017-10-03T10:00:36.170Z,24.59
2017-10-03T10:01:36.102Z,24.82
2017-10-03T10:02:36.024Z,24.54
2017-10-03T10:03:35.967Z,24.42
2017-10-03T10:04:35.877Z,24.71
2017-10-03T10:05:35.804Z,24.85
2017-10-03T10:06:35.733Z,25.05
2017-10-03T10:07:35.661Z,25.24
2017-10-03T10:08:35.588Z,25.16
2017-10-03T10:09:35.514Z,25.42
2017-10-03T10:10:35.444Z,25.19
2017-10-03T10:11:35.371Z,24.59
2017-10-03T10:12:35.298Z,24.98
2017-10-03T10:13:35.232Z,25.12
2017-10-03T10:14:35.159Z,24.60
2017-10-03T10:15:35.087Z,24.45
2017-10-03T10:16:35.013Z,24.34
2017-10-03T10:17:34.972Z,24.75
2017-10-03T10:18:34.878Z,24.59
2017-10-03T10:19:34.808Z,24.57
2017-10-03T10:20:34.731Z,24.80
2017-10-03T10:21:34.666Z,25.05
2017-10-03T10:22:34.603Z,25.05
2017-10-03T10:23:34.514Z,25.17
2017-10-03T10:24:34.452Z,24.71
2017-10-03T10:25:34.379Z,24.90
2017-10-03T10:26:34.314Z,24.23
2017-10-03T10:27:34.241Z,23.72
2017-10-03T10:28:34.170Z,23.62
2017-10-03T10:29:34.097Z,23.71
2017-10-03T10:30:34.030Z,23.97
2017-10-03T10:31:33.957Z,24.26
2017-10-03T10:32:33.888Z,24.53
2017-10-03T10:33:33.811Z,24.38
2017-10-03T10:34:33.742Z,24.75
2017-10-03T10:35:33.672Z,24.69
2017-10-03T10:36:33.605Z,24.10
2017-10-03T10:37:33.532Z,23.82
2017-10-03T10:38:33.460Z,23.94
2017-10-03T10:39:33.388Z,24.00
2017-10-03T10:40:33.335Z,23.85
2017-10-03T10:41:33.244Z,24.32
2017-10-03T10:42:33.175Z,24.45
2017-10-03T10:43:33.111Z,24.57
2017-10-03T10:44:33.092Z,24.53
2017-10-03T10:45:32.974Z,24.73
2017-10-03T10:46:32.888Z,25.07
2017-10-03T10:47:32.815Z,25.19
2017-10-03T10:48:32.745Z,25.12
2017-10-03T10:49:32.678Z,25.34
2017-10-03T10:50:32.609Z,25.39
2017-10-03T10:51:32.536Z,24.87
2017-10-03T10:52:32.462Z,25.12
2017-10-03T10:53:32.408Z,25.30
2017-10-03T10:54:32.346Z,25.19
2017-10-03T10:55:32.259Z,25.09
2017-10-03T10:56:32.226Z,25.16
2017-10-03T10:57:32.114Z,25.19
2017-10-03T10:58:32.042Z,25.20
2017-10-03T10:59:31.983Z,24.97
2017-10-03T11:00:31.906Z,24.92
2017-10-03T11:01:31.831Z,25.00
2017-10-03T11:02:31.760Z,25.13
2017-10-03T11:03:31.692Z,25.17
2017-10-03T11:04:31.620Z,25.19
2017-10-03T11:05:31.553Z,25.09
2017-10-03T11:06:31.478Z,25.06
2017-10-03T11:07:31.418Z,24.94
2017-10-03T11:08:31.334Z,24.68
2017-10-03T11:09:31.267Z,24.16
2017-10-03T11:10:31.197Z,24.24
2017-10-03T11:11:31.128Z,24.54
2017-10-03T11:12:31.049Z,24.98
2017-10-03T11:13:30.977Z,25.10
2017-10-03T11:14:30.905Z,25.15
2017-10-03T11:15:30.838Z,25.06
2017-10-03T11:16:30.768Z,25.19
2017-10-03T11:17:30.706Z,25.17
2017-10-03T11:18:30.628Z,25.25
2017-10-03T11:19:30.571Z,25.15
2017-10-03T11:20:30.496Z,24.95
2017-10-03T11:21:30.435Z,24.79
2017-10-03T11:22:30.355Z,24.75
2017-10-03T11:23:30.294Z,24.45
2017-10-03T11:24:30.215Z,24.53
2017-10-03T11:25:30.153Z,24.49
2017-10-03T11:26:30.076Z,24.42
2017-10-03T11:27:30.008Z,24.16
2017-10-03T11:28:29.936Z,24.01
2017-10-03T11:29:29.865Z,23.80
2017-10-03T11:30:29.797Z,24.14
2017-10-03T11:31:29.728Z,24.13
2017-10-03T11:32:29.652Z,23.92
2017-10-03T11:33:29.582Z,24.02
2017-10-03T11:34:29.504Z,24.05
2017-10-03T11:35:29.443Z,24.17
2017-10-03T11:36:29.360Z,24.32
2017-10-03T11:37:29.288Z,24.34
2017-10-03T11:38:29.205Z,24.71
2017-10-03T11:39:29.136Z,24.71
2017-10-03T11:40:29.063Z,24.82
2017-10-03T11:41:28.993Z,24.85
2017-10-03T11:42:28.917Z,24.67
2017-10-03T11:43:28.849Z,24.88
2017-10-03T11:44:28.770Z,24.88
2017-10-03T11:45:28.696Z,24.24
2017-10-03T11:46:28.626Z,24.29
2017-10-03T11:47:28.548Z,24.02
2017-10-03T11:48:28.489Z,23.94
2017-10-03T11:49:28.410Z,24.01
2017-10-03T11:50:28.332Z,24.19
2017-10-03T11:51:28.245Z,24.19
2017-10-03T11:52:28.179Z,24.22
2017-10-03T11:53:28.108Z,24.13
2017-10-03T11:54:28.028Z,24.16
2017-10-03T11:55:27.947Z,24.20
2017-10-03T11:56:27.900Z,24.22
2017-10-03T11:57:27.802Z,24.52
2017-10-03T11:58:27.732Z,24.34
2017-10-03T11:59:27.647Z,24.04
2017-10-03T12:00:27.595Z,24.14
2017-10-03T12:01:27.525Z,24.05
2017-10-03T12:02:27.425Z,24.10
2017-10-03T12:03:27.352Z,23.86
2017-10-03T12:04:27.322Z,23.95
2017-10-03T12:05:27.200Z,24.00
2017-10-03T12:06:27.139Z,23.87
2017-10-03T12:07:27.051Z,23.89
2017-10-03T12:08:26.974Z,23.85
2017-10-03T12:09:26.902Z,23.80
2017-10-03T12:10:26.829Z,23.79
2017-10-03T12:11:26.758Z,23.76
2017-10-03T12:12:26.674Z,23.76
2017-10-03T12:13:26.605Z,23.94
2017-10-03T12:14:26.523Z,23.87
2017-10-03T12:15:26.456Z,23.94
2017-10-03T12:16:26.376Z,24.10
2017-10-03T12:17:26.303Z,23.79
2017-10-03T12:18:26.224Z,23.98
2017-10-03T12:19:26.146Z,24.07
2017-10-03T12:20:26.076Z,23.95
2017-10-03T12:21:26.006Z,23.82
2017-10-03T12:22:25.925Z,23.89
2017-10-03T12:23:25.860Z,24.10
2017-10-03T12:24:25.796Z,23.97
2017-10-03T12:25:25.698Z,23.94
2017-10-03T12:26:25.622Z,23.82
2017-10-03T12:27:25.549Z,23.90
2017-10-03T12:28:25.482Z,23.83
2017-10-03T12:29:25.393Z,23.23
2017-10-03T12:30:25.333Z,23.34
2017-10-03T12:31:25.250Z,23.19
2017-10-03T12:32:25.196Z,22.84
2017-10-03T12:33:25.096Z,22.67
2017-10-03T12:34:25.019Z,23.02
2017-10-03T12:35:24.953Z,22.92
2017-10-03T12:36:24.870Z,22.84
2017-10-03T12:37:24.788Z,22.74
2017-10-03T12:38:24.727Z,22.65
2017-10-03T12:39:24.648Z,22.83
2017-10-03T12:40:24.571Z,22.82
2017-10-03T12:41:24.495Z,22.94
2017-10-03T12:42:24.412Z,23.15
2017-10-03T12:43:24.338Z,23.17
2017-10-03T12:44:24.260Z,23.24
2017-10-03T12:45:24.187Z,23.17
2017-10-03T12:46:24.109Z,23.17
2017-10-03T12:47:24.033Z,22.94
2017-10-03T12:48:23.956Z,22.96
2017-10-03T12:49:23.883Z,23.11
2017-10-03T12:50:23.810Z,23.15
2017-10-03T12:51:23.728Z,23.27